Aviation Digital Data Service (ADDS)

Output produced by METARs form (0036 UTC 23 October 2014)
found at http://www.aviationweather.gov/adds/metars/
 
KCXY 222356Z 34012G22KT 10SM OVC028 12/06 A2998 RMK AO2 SLP153 60000 T01220061 10133 20122 51004
KCXY 222256Z 35010G25KT 10SM OVC026 12/06 A2998 RMK AO2 PK WND 34028/2236 SLP152 T01220061
KCXY 222156Z 35010G22KT 10SM OVC028 13/07 A2997 RMK AO2 RAB2058E10 SLP151 P0000 T01280067
KCXY 222056Z 36012G17KT 10SM OVC027 13/07 A2997 RMK AO2 SLP148 T01330072 55003
KCXY 221956Z 34013G22KT 10SM BKN025 OVC070 13/07 A2996 RMK AO2 SLP147 T01330072
KCXY 221856Z 34011G21KT 10SM OVC023 13/08 A2997 RMK AO2 SLP150 T01280078
KCXY 221756Z 34012G18KT 10SM BKN020 BKN040 OVC055 12/09 A2997 RMK AO2 RAE02 SLP151 P0000 60006 T01220089 10133 20117 58003
KCXY 221656Z 34008KT 10SM -RA BKN022 BKN040 OVC050 12/09 A2998 RMK AO2 SLP155 P0002 T01220094
KCXY 221556Z 36007KT 10SM -RA OVC020 12/09 A2999 RMK AO2 SLP157 P0003 T01220089
KCXY 221456Z 35009G15KT 10SM -RA BKN022 BKN030 OVC035 12/09 A2998 RMK AO2 SLP155 P0001 60001 T01220089 51012
KCXY 221356Z 35009KT 10SM -RA BKN023 OVC030 13/09 A2998 RMK AO2 RAB44 SLP152 P0000 T01280089
KCXY 221256Z 36008G14KT 10SM OVC025 13/08 A2997 RMK AO2 SLP149 T01330083
KCXY 221211Z 34011G16KT 10SM SCT027 BKN032 BKN065 13/08 A2995 RMK AO2 T01330083
KCXY 221156Z 34009KT 10SM BKN029 OVC060 13/08 A2995 RMK AO2 SLP143 T01330083 10133 20128 53012
KCXY 221056Z 34006KT 10SM FEW028 BKN036 BKN085 13/08 A2993 RMK AO2 SLP138 T01280083
KCXY 221015Z AUTO 34010KT 10SM SCT027 BKN095 OVC110 13/08 A2992 RMK AO2 T01330083
KCXY 220956Z AUTO 33009G15KT 10SM BKN023 OVC095 13/09 A2992 RMK AO2 SLP134 T01330089
KCXY 220856Z AUTO 34005KT 10SM BKN025 OVC040 13/09 A2991 RMK AO2 SLP131 T01330089 53003
KCXY 220803Z AUTO 34004KT 10SM BKN026 OVC032 13/08 A2990 RMK AO2 T01330083
KCXY 220756Z AUTO 34003KT 10SM SCT027 OVC032 13/09 A2990 RMK AO2 SLP127 T01330089
KCXY 220656Z AUTO 34004KT 10SM BKN049 OVC065 13/08 A2990 RMK AO2 SLP126 T01330083
KCXY 220556Z AUTO 33005KT 10SM BKN041 OVC055 13/08 A2991 RMK AO2 SLP128 T01330083 10133 20111 56008
KCXY 220456Z AUTO 33006KT 10SM BKN037 OVC049 13/09 A2991 RMK AO2 SLP131 T01330089 401830100
KCXY 220356Z AUTO 27004KT 10SM OVC075 12/09 A2992 RMK AO2 SLP132 T01220089
KCXY 220256Z AUTO 27005KT 10SM BKN060 12/09 A2993 RMK AO2 SLP136 T01170089 51014
KCXY 220156Z AUTO 29004KT 10SM SCT120 12/09 A2992 RMK AO2 SLP131 T01220089
KCXY 220056Z AUTO 26005KT 10SM SCT045 BKN060 12/09 A2991 RMK AO2 SLP128 T01220089
KCXY 212356Z 26006KT 10SM BKN110 13/09 A2989 RMK AO2 SLP122 T01280089 10183 20128 52018
KCXY 212256Z 24006KT 10SM FEW040 OVC090 14/10 A2987 RMK AO2 SLP117 T01440100
KCXY 212156Z 28003KT 10SM BKN110 16/09 A2985 RMK AO2 SLP109 T01560094
KCXY 212056Z 30004KT 10SM BKN039 BKN070 OVC095 16/09 A2983 RMK AO2 SLP104 T01610089 55002
KCXY 211956Z 00000KT 10SM FEW060 OVC085 17/09 A2982 RMK AO2 SLP099 T01670089
KCXY 211856Z 34003KT 10SM BKN090 18/09 A2982 RMK AO2 SLP100 T01780094
KCXY 211756Z 35004KT 10SM SCT040 OVC050 17/09 A2984 RMK AO2 SLP106 T01670094 10172 20106 58013
KCXY 211656Z 00000KT 10SM FEW021 BKN042 17/11 A2985 RMK AO2 SLP110 T01670106
KCXY 211556Z 00000KT 10SM BKN039 BKN080 14/11 A2987 RMK AO2 SLP118 T01440106
KCXY 211456Z 00000KT 4SM HZ SCT007 BKN050 14/11 A2988 RMK AO2 SLP119 T01390111 50004
KCXY 211442Z 00000KT 3SM BR BKN007 BKN048 BKN085 13/11 A2988 RMK AO2 T01330111
KCXY 211356Z 00000KT 2 1/2SM BR OVC005 12/11 A2988 RMK AO2 SLP120 T01220106
KCXY 211332Z 05003KT 2 1/2SM BR SCT004 BKN085 12/11 A2988 RMK AO2 T01220106
KCXY 211303Z 00000KT 2 1/2SM BR BKN004 BKN090 12/11 A2988 RMK AO2 T01170106
KCXY 211256Z 00000KT 2 1/2SM BR BKN002 BKN090 11/11 A2988 RMK AO2 SLP120 T01110106
KCXY 211243Z 00000KT 2 1/2SM BR OVC002 11/11 A2988 RMK AO2 T01110106